sensor_id;sensor_type;location;lat;lon;timestamp;temperature;humidity
11112;DHT22;5609;49.466;8.468;2023-03-04T00:02:10;1.50;99.90
11112;DHT22;5609;49.466;8.468;2023-03-04T00:04:37;1.50;99.90
11112;DHT22;5609;49.466;8.468;2023-03-04T00:07:04;1.50;99.90
11112;DHT22;5609;49.466;8.468;2023-03-04T00:09:30;1.60;99.90
11112;DHT22;5609;49.466;8.468;2023-03-04T00:11:57;1.60;99.90
11112;DHT22;5609;49.466;8.468;2023-03-04T00:14:25;1.50;99.90
11112;DHT22;5609;49.466;8.468;2023-03-04T00:16:52;1.50;99.90
11112;DHT22;5609;49.466;8.468;2023-03-04T00:19:18;1.50;99.90
11112;DHT22;5609;49.466;8.468;2023-03-04T00:21:45;1.40;99.90
11112;DHT22;5609;49.466;8.468;2023-03-04T00:24:12;1.40;99.90
11112;DHT22;5609;49.466;8.468;2023-03-04T00:26:39;1.30;99.90
11112;DHT22;5609;49.466;8.468;2023-03-04T00:29:05;1.30;99.90
11112;DHT22;5609;49.466;8.468;2023-03-04T00:31:33;1.30;99.90
11112;DHT22;5609;49.466;8.468;2023-03-04T00:34:00;1.30;99.90
11112;DHT22;5609;49.466;8.468;2023-03-04T00:36:27;1.20;99.90
11112;DHT22;5609;49.466;8.468;2023-03-04T00:38:53;1.30;99.90
11112;DHT22;5609;49.466;8.468;2023-03-04T00:41:20;1.30;99.90
11112;DHT22;5609;49.466;8.468;2023-03-04T00:43:47;1.20;99.90
11112;DHT22;5609;49.466;8.468;2023-03-04T00:46:13;1.10;99.90
11112;DHT22;5609;49.466;8.468;2023-03-04T00:48:41;1.10;99.90
11112;DHT22;5609;49.466;8.468;2023-03-04T00:51:08;1.10;99.90
11112;DHT22;5609;49.466;8.468;2023-03-04T00:53:35;1.00;99.90
11112;DHT22;5609;49.466;8.468;2023-03-04T00:56:01;1.10;99.90
11112;DHT22;5609;49.466;8.468;2023-03-04T00:58:28;1.10;99.90
11112;DHT22;5609;49.466;8.468;2023-03-04T01:00:55;1.00;99.90
11112;DHT22;5609;49.466;8.468;2023-03-04T01:03:21;1.00;99.90
11112;DHT22;5609;49.466;8.468;2023-03-04T01:05:50;1.00;99.90
11112;DHT22;5609;49.466;8.468;2023-03-04T01:08:17;1.00;99.90
11112;DHT22;5609;49.466;8.468;2023-03-04T01:10:43;1.00;99.90
11112;DHT22;5609;49.466;8.468;2023-03-04T01:13:10;1.00;99.90
11112;DHT22;5609;49.466;8.468;2023-03-04T01:15:37;0.90;99.90
11112;DHT22;5609;49.466;8.468;2023-03-04T01:18:03;1.00;99.90
11112;DHT22;5609;49.466;8.468;2023-03-04T01:20:30;0.90;99.90
11112;DHT22;5609;49.466;8.468;2023-03-04T01:22:58;0.90;99.90
11112;DHT22;5609;49.466;8.468;2023-03-04T01:25:25;0.80;99.90
11112;DHT22;5609;49.466;8.468;2023-03-04T01:27:51;0.80;99.90
11112;DHT22;5609;49.466;8.468;2023-03-04T01:30:18;0.80;99.90
11112;DHT22;5609;49.466;8.468;2023-03-04T01:32:45;0.70;99.90
11112;DHT22;5609;49.466;8.468;2023-03-04T01:35:12;0.80;99.90
11112;DHT22;5609;49.466;8.468;2023-03-04T01:37:38;0.80;99.90
11112;DHT22;5609;49.466;8.468;2023-03-04T01:40:08;0.70;99.90
11112;DHT22;5609;49.466;8.468;2023-03-04T01:42:35;0.60;99.90
11112;DHT22;5609;49.466;8.468;2023-03-04T01:45:03;0.60;99.90
11112;DHT22;5609;49.466;8.468;2023-03-04T01:47:32;0.60;99.90
11112;DHT22;5609;49.466;8.468;2023-03-04T01:50:02;0.60;99.90
11112;DHT22;5609;49.466;8.468;2023-03-04T01:52:29;0.60;99.90
11112;DHT22;5609;49.466;8.468;2023-03-04T01:54:56;0.50;99.90
11112;DHT22;5609;49.466;8.468;2023-03-04T01:57:25;0.50;99.90
11112;DHT22;5609;49.466;8.468;2023-03-04T02:00:14;0.50;99.90
11112;DHT22;5609;49.466;8.468;2023-03-04T02:02:43;0.50;99.90
11112;DHT22;5609;49.466;8.468;2023-03-04T02:05:10;0.40;99.90
11112;DHT22;5609;49.466;8.468;2023-03-04T02:07:37;0.50;99.90
11112;DHT22;5609;49.466;8.468;2023-03-04T02:10:04;0.50;99.90
11112;DHT22;5609;49.466;8.468;2023-03-04T02:12:32;0.50;99.90
11112;DHT22;5609;49.466;8.468;2023-03-04T02:14:59;0.60;99.90
11112;DHT22;5609;49.466;8.468;2023-03-04T02:17:27;0.50;99.90
11112;DHT22;5609;49.466;8.468;2023-03-04T02:19:58;0.40;99.90
11112;DHT22;5609;49.466;8.468;2023-03-04T02:22:28;0.40;99.90
11112;DHT22;5609;49.466;8.468;2023-03-04T02:24:59;0.30;99.90
11112;DHT22;5609;49.466;8.468;2023-03-04T02:27:28;0.30;99.90
11112;DHT22;5609;49.466;8.468;2023-03-04T02:29:55;0.40;99.90
11112;DHT22;5609;49.466;8.468;2023-03-04T02:32:22;0.40;99.90
11112;DHT22;5609;49.466;8.468;2023-03-04T02:34:49;0.50;99.90
11112;DHT22;5609;49.466;8.468;2023-03-04T02:37:17;0.50;99.90
11112;DHT22;5609;49.466;8.468;2023-03-04T02:39:46;0.40;99.90
11112;DHT22;5609;49.466;8.468;2023-03-04T02:42:14;0.50;99.90
11112;DHT22;5609;49.466;8.468;2023-03-04T02:44:45;0.40;99.90
11112;DHT22;5609;49.466;8.468;2023-03-04T02:47:15;0.40;99.90
11112;DHT22;5609;49.466;8.468;2023-03-04T02:49:43;0.40;99.90
11112;DHT22;5609;49.466;8.468;2023-03-04T02:52:14;0.30;99.90
11112;DHT22;5609;49.466;8.468;2023-03-04T02:54:42;0.40;99.90
11112;DHT22;5609;49.466;8.468;2023-03-04T02:57:10;0.40;99.90
11112;DHT22;5609;49.466;8.468;2023-03-04T02:59:38;0.40;99.90
11112;DHT22;5609;49.466;8.468;2023-03-04T03:02:07;0.40;99.90
11112;DHT22;5609;49.466;8.468;2023-03-04T03:04:36;0.30;99.90
11112;DHT22;5609;49.466;8.468;2023-03-04T03:07:03;0.40;99.90
11112;DHT22;5609;49.466;8.468;2023-03-04T03:09:30;0.30;99.90
11112;DHT22;5609;49.466;8.468;2023-03-04T03:11:57;0.40;99.90
11112;DHT22;5609;49.466;8.468;2023-03-04T03:14:24;0.40;99.90
11112;DHT22;5609;49.466;8.468;2023-03-04T03:16:51;0.30;99.90
11112;DHT22;5609;49.466;8.468;2023-03-04T03:19:19;0.30;99.90
11112;DHT22;5609;49.466;8.468;2023-03-04T03:21:46;0.30;99.90
11112;DHT22;5609;49.466;8.468;2023-03-04T03:24:14;0.30;99.90
11112;DHT22;5609;49.466;8.468;2023-03-04T03:26:41;0.20;99.90
11112;DHT22;5609;49.466;8.468;2023-03-04T03:29:08;0.20;99.90
11112;DHT22;5609;49.466;8.468;2023-03-04T03:31:35;0.20;99.90
11112;DHT22;5609;49.466;8.468;2023-03-04T03:34:02;0.20;99.90
11112;DHT22;5609;49.466;8.468;2023-03-04T03:36:30;0.10;99.90
11112;DHT22;5609;49.466;8.468;2023-03-04T03:38:57;0.20;99.90
11112;DHT22;5609;49.466;8.468;2023-03-04T03:41:24;0.10;99.90
11112;DHT22;5609;49.466;8.468;2023-03-04T03:43:51;0.10;99.90
11112;DHT22;5609;49.466;8.468;2023-03-04T03:46:18;0.10;99.90
11112;DHT22;5609;49.466;8.468;2023-03-04T03:48:45;0.10;99.90
11112;DHT22;5609;49.466;8.468;2023-03-04T03:51:12;0.10;99.90
11112;DHT22;5609;49.466;8.468;2023-03-04T03:53:40;0.10;99.90
11112;DHT22;5609;49.466;8.468;2023-03-04T03:56:07;0.10;99.90
11112;DHT22;5609;49.466;8.468;2023-03-04T03:58:33;0.20;99.90
11112;DHT22;5609;49.466;8.468;2023-03-04T04:01:00;0.20;99.90
11112;DHT22;5609;49.466;8.468;2023-03-04T04:03:27;0.30;99.90
11112;DHT22;5609;49.466;8.468;2023-03-04T04:05:54;0.30;99.90
11112;DHT22;5609;49.466;8.468;2023-03-04T04:08:21;0.30;99.90
11112;DHT22;5609;49.466;8.468;2023-03-04T04:10:49;0.20;99.90
11112;DHT22;5609;49.466;8.468;2023-03-04T04:13:16;0.20;99.90
11112;DHT22;5609;49.466;8.468;2023-03-04T04:15:43;0.20;99.90
11112;DHT22;5609;49.466;8.468;2023-03-04T04:18:10;0.10;99.90
11112;DHT22;5609;49.466;8.468;2023-03-04T04:20:37;0.10;99.90
11112;DHT22;5609;49.466;8.468;2023-03-04T04:23:04;0.20;99.90
11112;DHT22;5609;49.466;8.468;2023-03-04T04:25:31;0.10;99.90
11112;DHT22;5609;49.466;8.468;2023-03-04T04:27:59;0.00;99.90
11112;DHT22;5609;49.466;8.468;2023-03-04T04:30:26;0.00;99.90
11112;DHT22;5609;49.466;8.468;2023-03-04T04:32:53;0.00;99.90
11112;DHT22;5609;49.466;8.468;2023-03-04T04:35:20;-0.10;99.90
11112;DHT22;5609;49.466;8.468;2023-03-04T04:37:46;-0.10;99.90
11112;DHT22;5609;49.466;8.468;2023-03-04T04:40:13;-0.20;99.90
11112;DHT22;5609;49.466;8.468;2023-03-04T04:42:41;-0.10;99.90
11112;DHT22;5609;49.466;8.468;2023-03-04T04:45:10;-0.20;99.90
11112;DHT22;5609;49.466;8.468;2023-03-04T04:47:37;-0.20;99.90
11112;DHT22;5609;49.466;8.468;2023-03-04T04:50:04;-0.10;99.90
11112;DHT22;5609;49.466;8.468;2023-03-04T04:52:31;-0.10;99.90
11112;DHT22;5609;49.466;8.468;2023-03-04T04:54:58;-0.10;99.90
11112;DHT22;5609;49.466;8.468;2023-03-04T04:57:25;0.00;99.90
11112;DHT22;5609;49.466;8.468;2023-03-04T04:59:52;-0.10;99.90
11112;DHT22;5609;49.466;8.468;2023-03-04T05:02:20;-0.10;99.90
11112;DHT22;5609;49.466;8.468;2023-03-04T05:04:47;-0.20;99.90
11112;DHT22;5609;49.466;8.468;2023-03-04T05:07:14;-0.20;99.90
11112;DHT22;5609;49.466;8.468;2023-03-04T05:09:41;-0.20;99.90
11112;DHT22;5609;49.466;8.468;2023-03-04T05:12:07;-0.20;99.90
11112;DHT22;5609;49.466;8.468;2023-03-04T05:14:34;-0.20;99.90
11112;DHT22;5609;49.466;8.468;2023-03-04T05:17:01;-0.20;99.90
11112;DHT22;5609;49.466;8.468;2023-03-04T05:19:29;-0.10;99.90
11112;DHT22;5609;49.466;8.468;2023-03-04T05:21:56;0.00;99.90
11112;DHT22;5609;49.466;8.468;2023-03-04T05:24:23;0.10;99.90
11112;DHT22;5609;49.466;8.468;2023-03-04T05:26:50;0.20;99.90
11112;DHT22;5609;49.466;8.468;2023-03-04T05:29:17;0.30;99.90
11112;DHT22;5609;49.466;8.468;2023-03-04T05:31:44;0.40;99.90
11112;DHT22;5609;49.466;8.468;2023-03-04T05:34:11;0.50;99.90
11112;DHT22;5609;49.466;8.468;2023-03-04T05:36:39;0.50;99.90
11112;DHT22;5609;49.466;8.468;2023-03-04T05:39:06;0.60;99.90
11112;DHT22;5609;49.466;8.468;2023-03-04T05:41:33;0.70;99.90
11112;DHT22;5609;49.466;8.468;2023-03-04T05:44:00;0.70;99.90
11112;DHT22;5609;49.466;8.468;2023-03-04T05:46:27;0.70;99.90
11112;DHT22;5609;49.466;8.468;2023-03-04T05:48:54;0.80;99.90
11112;DHT22;5609;49.466;8.468;2023-03-04T05:51:21;0.90;99.90
11112;DHT22;5609;49.466;8.468;2023-03-04T05:53:50;0.80;99.90
11112;DHT22;5609;49.466;8.468;2023-03-04T05:56:18;0.90;99.90
11112;DHT22;5609;49.466;8.468;2023-03-04T05:58:45;0.90;99.90
11112;DHT22;5609;49.466;8.468;2023-03-04T06:01:13;1.00;99.90
11112;DHT22;5609;49.466;8.468;2023-03-04T06:03:40;1.00;99.90
11112;DHT22;5609;49.466;8.468;2023-03-04T06:06:08;1.00;99.90
11112;DHT22;5609;49.466;8.468;2023-03-04T06:08:35;0.90;99.90
11112;DHT22;5609;49.466;8.468;2023-03-04T06:11:03;1.10;99.90
11112;DHT22;5609;49.466;8.468;2023-03-04T06:13:31;1.00;99.90
11112;DHT22;5609;49.466;8.468;2023-03-04T06:15:58;1.00;99.90
11112;DHT22;5609;49.466;8.468;2023-03-04T06:18:26;1.00;99.90
11112;DHT22;5609;49.466;8.468;2023-03-04T06:20:55;1.10;99.90
11112;DHT22;5609;49.466;8.468;2023-03-04T06:23:23;1.10;99.90
11112;DHT22;5609;49.466;8.468;2023-03-04T06:25:51;1.30;99.90
11112;DHT22;5609;49.466;8.468;2023-03-04T06:28:20;1.20;99.90
11112;DHT22;5609;49.466;8.468;2023-03-04T06:30:50;1.30;99.90
11112;DHT22;5609;49.466;8.468;2023-03-04T06:33:17;1.30;99.90
11112;DHT22;5609;49.466;8.468;2023-03-04T06:35:43;1.30;99.90
11112;DHT22;5609;49.466;8.468;2023-03-04T06:38:10;1.50;99.90
11112;DHT22;5609;49.466;8.468;2023-03-04T06:40:38;1.50;99.90
11112;DHT22;5609;49.466;8.468;2023-03-04T06:43:05;1.50;99.90
11112;DHT22;5609;49.466;8.468;2023-03-04T06:45:33;1.60;99.90
11112;DHT22;5609;49.466;8.468;2023-03-04T06:47:59;1.60;99.90
11112;DHT22;5609;49.466;8.468;2023-03-04T06:50:26;1.70;99.90
11112;DHT22;5609;49.466;8.468;2023-03-04T06:52:55;1.80;99.90
11112;DHT22;5609;49.466;8.468;2023-03-04T06:55:22;1.90;99.90
11112;DHT22;5609;49.466;8.468;2023-03-04T06:57:48;2.00;99.90
11112;DHT22;5609;49.466;8.468;2023-03-04T07:00:16;2.10;99.90
11112;DHT22;5609;49.466;8.468;2023-03-04T07:02:45;2.10;99.90
11112;DHT22;5609;49.466;8.468;2023-03-04T07:05:11;2.50;99.90
11112;DHT22;5609;49.466;8.468;2023-03-04T07:07:38;4.00;99.90
11112;DHT22;5609;49.466;8.468;2023-03-04T07:10:05;5.30;99.90
11112;DHT22;5609;49.466;8.468;2023-03-04T07:12:34;6.20;99.90
11112;DHT22;5609;49.466;8.468;2023-03-04T07:15:01;7.00;99.90
11112;DHT22;5609;49.466;8.468;2023-03-04T07:17:28;7.30;99.90
11112;DHT22;5609;49.466;8.468;2023-03-04T07:19:56;7.90;99.90
11112;DHT22;5609;49.466;8.468;2023-03-04T07:22:23;8.60;99.90
11112;DHT22;5609;49.466;8.468;2023-03-04T07:24:49;8.80;99.90
11112;DHT22;5609;49.466;8.468;2023-03-04T07:27:20;9.10;99.90
11112;DHT22;5609;49.466;8.468;2023-03-04T07:29:47;9.00;99.90
11112;DHT22;5609;49.466;8.468;2023-03-04T07:32:14;9.50;99.90
11112;DHT22;5609;49.466;8.468;2023-03-04T07:34:41;9.70;99.90
11112;DHT22;5609;49.466;8.468;2023-03-04T07:37:09;9.90;99.90
11112;DHT22;5609;49.466;8.468;2023-03-04T07:39:36;10.20;99.90
11112;DHT22;5609;49.466;8.468;2023-03-04T07:42:03;10.20;99.90
11112;DHT22;5609;49.466;8.468;2023-03-04T07:44:30;10.10;99.90
11112;DHT22;5609;49.466;8.468;2023-03-04T07:46:57;9.80;99.90
11112;DHT22;5609;49.466;8.468;2023-03-04T07:49:24;9.90;99.90
11112;DHT22;5609;49.466;8.468;2023-03-04T07:51:51;9.90;99.90
11112;DHT22;5609;49.466;8.468;2023-03-04T07:54:20;9.80;99.90
11112;DHT22;5609;49.466;8.468;2023-03-04T07:56:47;9.90;99.90
11112;DHT22;5609;49.466;8.468;2023-03-04T07:59:14;9.90;99.90
11112;DHT22;5609;49.466;8.468;2023-03-04T08:01:40;9.90;99.90
11112;DHT22;5609;49.466;8.468;2023-03-04T08:04:07;9.90;99.90
11112;DHT22;5609;49.466;8.468;2023-03-04T08:06:34;10.20;99.90
11112;DHT22;5609;49.466;8.468;2023-03-04T08:09:04;10.30;99.90
11112;DHT22;5609;49.466;8.468;2023-03-04T08:11:34;10.10;99.90
11112;DHT22;5609;49.466;8.468;2023-03-04T08:14:01;10.10;99.90
11112;DHT22;5609;49.466;8.468;2023-03-04T08:16:28;10.10;99.90
11112;DHT22;5609;49.466;8.468;2023-03-04T08:18:58;10.50;99.90
11112;DHT22;5609;49.466;8.468;2023-03-04T08:21:26;10.50;99.90
11112;DHT22;5609;49.466;8.468;2023-03-04T08:23:54;10.40;99.90
11112;DHT22;5609;49.466;8.468;2023-03-04T08:26:24;10.20;99.90
11112;DHT22;5609;49.466;8.468;2023-03-04T08:28:54;10.40;99.90
11112;DHT22;5609;49.466;8.468;2023-03-04T08:31:21;10.30;99.90
11112;DHT22;5609;49.466;8.468;2023-03-04T08:33:48;10.30;99.90
11112;DHT22;5609;49.466;8.468;2023-03-04T08:36:17;10.00;99.90
11112;DHT22;5609;49.466;8.468;2023-03-04T08:38:44;9.50;99.90
11112;DHT22;5609;49.466;8.468;2023-03-04T08:41:11;9.00;99.90
11112;DHT22;5609;49.466;8.468;2023-03-04T08:43:40;9.00;99.90
11112;DHT22;5609;49.466;8.468;2023-03-04T08:46:08;9.20;99.90
11112;DHT22;5609;49.466;8.468;2023-03-04T08:48:36;9.40;99.90
11112;DHT22;5609;49.466;8.468;2023-03-04T08:51:06;9.90;99.90
11112;DHT22;5609;49.466;8.468;2023-03-04T08:53:34;9.90;99.90
11112;DHT22;5609;49.466;8.468;2023-03-04T08:56:01;9.90;99.90
11112;DHT22;5609;49.466;8.468;2023-03-04T08:58:28;10.40;99.90
11112;DHT22;5609;49.466;8.468;2023-03-04T09:00:55;10.40;99.90
11112;DHT22;5609;49.466;8.468;2023-03-04T09:03:26;10.50;99.90
11112;DHT22;5609;49.466;8.468;2023-03-04T09:05:53;10.50;99.90
11112;DHT22;5609;49.466;8.468;2023-03-04T09:08:20;10.50;99.90
11112;DHT22;5609;49.466;8.468;2023-03-04T09:10:51;10.40;99.90
11112;DHT22;5609;49.466;8.468;2023-03-04T09:13:19;10.40;99.90
11112;DHT22;5609;49.466;8.468;2023-03-04T09:15:47;10.50;99.90
11112;DHT22;5609;49.466;8.468;2023-03-04T09:18:15;10.40;99.90
11112;DHT22;5609;49.466;8.468;2023-03-04T09:20:44;10.60;99.90
11112;DHT22;5609;49.466;8.468;2023-03-04T09:23:12;10.70;99.90
11112;DHT22;5609;49.466;8.468;2023-03-04T09:25:40;10.70;99.90
11112;DHT22;5609;49.466;8.468;2023-03-04T09:28:09;10.70;99.90
11112;DHT22;5609;49.466;8.468;2023-03-04T09:30:36;10.50;99.90
11112;DHT22;5609;49.466;8.468;2023-03-04T09:33:03;10.50;99.90
11112;DHT22;5609;49.466;8.468;2023-03-04T09:35:30;10.50;99.90
11112;DHT22;5609;49.466;8.468;2023-03-04T09:37:59;10.60;99.90
11112;DHT22;5609;49.466;8.468;2023-03-04T09:40:29;10.50;99.90
11112;DHT22;5609;49.466;8.468;2023-03-04T09:42:59;10.60;99.90
11112;DHT22;5609;49.466;8.468;2023-03-04T09:45:33;10.70;99.90
11112;DHT22;5609;49.466;8.468;2023-03-04T09:48:01;10.60;99.90
11112;DHT22;5609;49.466;8.468;2023-03-04T09:50:31;10.90;99.90
11112;DHT22;5609;49.466;8.468;2023-03-04T09:53:12;10.80;99.90
11112;DHT22;5609;49.466;8.468;2023-03-04T09:55:44;10.60;99.90
11112;DHT22;5609;49.466;8.468;2023-03-04T09:58:24;10.60;99.90
11112;DHT22;5609;49.466;8.468;2023-03-04T10:00:55;10.50;99.90
11112;DHT22;5609;49.466;8.468;2023-03-04T10:03:26;10.70;99.90
11112;DHT22;5609;49.466;8.468;2023-03-04T10:05:59;10.70;99.90
11112;DHT22;5609;49.466;8.468;2023-03-04T10:08:37;10.60;99.90
11112;DHT22;5609;49.466;8.468;2023-03-04T10:11:13;10.10;99.90
11112;DHT22;5609;49.466;8.468;2023-03-04T10:13:50;10.20;99.90
11112;DHT22;5609;49.466;8.468;2023-03-04T10:16:22;10.50;99.90
11112;DHT22;5609;49.466;8.468;2023-03-04T10:18:53;10.40;99.90
11112;DHT22;5609;49.466;8.468;2023-03-04T10:21:26;10.50;99.90
11112;DHT22;5609;49.466;8.468;2023-03-04T10:23:57;10.60;99.90
11112;DHT22;5609;49.466;8.468;2023-03-04T10:26:28;10.60;99.90
11112;DHT22;5609;49.466;8.468;2023-03-04T10:28:57;10.60;99.90
11112;DHT22;5609;49.466;8.468;2023-03-04T10:31:32;10.80;99.90
11112;DHT22;5609;49.466;8.468;2023-03-04T10:34:01;10.70;99.90
11112;DHT22;5609;49.466;8.468;2023-03-04T10:36:52;10.60;99.90
11112;DHT22;5609;49.466;8.468;2023-03-04T10:39:25;10.70;99.90
11112;DHT22;5609;49.466;8.468;2023-03-04T10:41:56;10.60;99.90
11112;DHT22;5609;49.466;8.468;2023-03-04T10:44:23;10.30;99.90
11112;DHT22;5609;49.466;8.468;2023-03-04T10:46:52;10.00;99.90
11112;DHT22;5609;49.466;8.468;2023-03-04T10:49:20;10.30;99.90
11112;DHT22;5609;49.466;8.468;2023-03-04T10:51:51;10.30;99.90
11112;DHT22;5609;49.466;8.468;2023-03-04T10:54:26;10.10;99.90
11112;DHT22;5609;49.466;8.468;2023-03-04T10:56:59;10.40;99.90
11112;DHT22;5609;49.466;8.468;2023-03-04T11:02:24;10.30;99.90
11112;DHT22;5609;49.466;8.468;2023-03-04T11:04:55;10.50;99.90
11112;DHT22;5609;49.466;8.468;2023-03-04T11:07:24;10.20;99.90
11112;DHT22;5609;49.466;8.468;2023-03-04T11:09:53;10.10;99.90
11112;DHT22;5609;49.466;8.468;2023-03-04T11:12:30;10.40;99.90
11112;DHT22;5609;49.466;8.468;2023-03-04T11:14:58;10.40;99.90
11112;DHT22;5609;49.466;8.468;2023-03-04T11:17:27;10.50;99.90
11112;DHT22;5609;49.466;8.468;2023-03-04T11:19:57;10.60;99.90
11112;DHT22;5609;49.466;8.468;2023-03-04T11:22:29;10.60;99.90
11112;DHT22;5609;49.466;8.468;2023-03-04T11:25:02;10.30;99.90
11112;DHT22;5609;49.466;8.468;2023-03-04T11:27:37;10.20;99.90
11112;DHT22;5609;49.466;8.468;2023-03-04T11:30:25;10.20;99.90
11112;DHT22;5609;49.466;8.468;2023-03-04T11:32:58;10.20;99.90
11112;DHT22;5609;49.466;8.468;2023-03-04T11:35:31;10.30;99.90
11112;DHT22;5609;49.466;8.468;2023-03-04T11:38:05;10.60;99.90
11112;DHT22;5609;49.466;8.468;2023-03-04T11:40:40;10.50;99.90
11112;DHT22;5609;49.466;8.468;2023-03-04T11:43:13;10.30;99.90
11112;DHT22;5609;49.466;8.468;2023-03-04T11:46:03;10.30;99.90
11112;DHT22;5609;49.466;8.468;2023-03-04T11:48:41;10.60;99.90
11112;DHT22;5609;49.466;8.468;2023-03-04T11:51:14;10.50;99.90
11112;DHT22;5609;49.466;8.468;2023-03-04T11:56:42;10.60;99.90
11112;DHT22;5609;49.466;8.468;2023-03-04T12:02:11;10.50;99.90
11112;DHT22;5609;49.466;8.468;2023-03-04T12:05:00;10.60;99.90
11112;DHT22;5609;49.466;8.468;2023-03-04T12:08:01;10.70;99.90
11112;DHT22;5609;49.466;8.468;2023-03-04T12:10:34;10.90;99.90
11112;DHT22;5609;49.466;8.468;2023-03-04T12:16:13;11.20;99.90
11112;DHT22;5609;49.466;8.468;2023-03-04T12:18:53;11.20;99.90
11112;DHT22;5609;49.466;8.468;2023-03-04T12:21:33;11.00;99.90
11112;DHT22;5609;49.466;8.468;2023-03-04T12:24:21;10.90;99.90
11112;DHT22;5609;49.466;8.468;2023-03-04T12:26:55;10.90;99.90
11112;DHT22;5609;49.466;8.468;2023-03-04T12:29:30;10.80;99.90
11112;DHT22;5609;49.466;8.468;2023-03-04T12:32:09;10.70;99.90
11112;DHT22;5609;49.466;8.468;2023-03-04T12:34:55;10.60;99.90
11112;DHT22;5609;49.466;8.468;2023-03-04T12:37:39;10.70;99.90
11112;DHT22;5609;49.466;8.468;2023-03-04T12:40:33;10.50;99.90
11112;DHT22;5609;49.466;8.468;2023-03-04T12:43:26;10.50;99.90
11112;DHT22;5609;49.466;8.468;2023-03-04T12:46:05;10.40;99.90
11112;DHT22;5609;49.466;8.468;2023-03-04T12:48:35;10.40;99.90
11112;DHT22;5609;49.466;8.468;2023-03-04T12:51:21;10.70;99.90
11112;DHT22;5609;49.466;8.468;2023-03-04T12:54:06;10.60;99.90
11112;DHT22;5609;49.466;8.468;2023-03-04T12:56:43;10.70;99.90
11112;DHT22;5609;49.466;8.468;2023-03-04T12:59:15;10.80;99.90
11112;DHT22;5609;49.466;8.468;2023-03-04T13:01:47;10.70;99.90
11112;DHT22;5609;49.466;8.468;2023-03-04T13:04:21;10.60;99.90
11112;DHT22;5609;49.466;8.468;2023-03-04T13:07:00;10.70;99.90
11112;DHT22;5609;49.466;8.468;2023-03-04T13:09:36;10.70;99.90
11112;DHT22;5609;49.466;8.468;2023-03-04T13:12:14;10.70;99.90
11112;DHT22;5609;49.466;8.468;2023-03-04T13:18:00;10.20;99.90
11112;DHT22;5609;49.466;8.468;2023-03-04T13:20:36;10.30;99.90
11112;DHT22;5609;49.466;8.468;2023-03-04T13:23:22;10.60;99.90
11112;DHT22;5609;49.466;8.468;2023-03-04T13:26:07;10.70;99.90
11112;DHT22;5609;49.466;8.468;2023-03-04T13:28:37;10.70;99.90
11112;DHT22;5609;49.466;8.468;2023-03-04T13:31:15;10.80;99.90
11112;DHT22;5609;49.466;8.468;2023-03-04T13:33:50;10.80;99.90
11112;DHT22;5609;49.466;8.468;2023-03-04T13:39:32;9.80;99.90
11112;DHT22;5609;49.466;8.468;2023-03-04T13:42:00;9.60;99.90
11112;DHT22;5609;49.466;8.468;2023-03-04T13:47:43;9.10;99.90
11112;DHT22;5609;49.466;8.468;2023-03-04T13:50:37;8.90;99.90
11112;DHT22;5609;49.466;8.468;2023-03-04T13:53:21;9.00;99.90
11112;DHT22;5609;49.466;8.468;2023-03-04T13:56:04;8.70;99.90
11112;DHT22;5609;49.466;8.468;2023-03-04T13:58:32;8.60;99.90
11112;DHT22;5609;49.466;8.468;2023-03-04T14:01:00;8.70;99.90
11112;DHT22;5609;49.466;8.468;2023-03-04T14:03:28;8.80;99.90
11112;DHT22;5609;49.466;8.468;2023-03-04T14:06:12;9.10;99.90
11112;DHT22;5609;49.466;8.468;2023-03-04T14:08:41;9.00;99.90
11112;DHT22;5609;49.466;8.468;2023-03-04T14:11:12;9.10;99.90
11112;DHT22;5609;49.466;8.468;2023-03-04T14:13:40;8.60;99.90
11112;DHT22;5609;49.466;8.468;2023-03-04T14:16:07;8.30;99.90
11112;DHT22;5609;49.466;8.468;2023-03-04T14:18:34;8.30;99.90
11112;DHT22;5609;49.466;8.468;2023-03-04T14:21:02;8.00;99.90
11112;DHT22;5609;49.466;8.468;2023-03-04T14:23:33;7.70;99.90
11112;DHT22;5609;49.466;8.468;2023-03-04T14:26:05;7.70;99.90
11112;DHT22;5609;49.466;8.468;2023-03-04T14:28:32;7.60;99.90
11112;DHT22;5609;49.466;8.468;2023-03-04T14:31:00;7.50;99.90
11112;DHT22;5609;49.466;8.468;2023-03-04T14:33:28;7.90;99.90
11112;DHT22;5609;49.466;8.468;2023-03-04T14:35:57;8.10;99.90
11112;DHT22;5609;49.466;8.468;2023-03-04T14:38:26;8.10;99.90
11112;DHT22;5609;49.466;8.468;2023-03-04T14:40:58;8.20;99.90
11112;DHT22;5609;49.466;8.468;2023-03-04T14:43:28;8.60;99.90
11112;DHT22;5609;49.466;8.468;2023-03-04T14:45:57;9.20;99.90
11112;DHT22;5609;49.466;8.468;2023-03-04T14:48:27;9.50;99.90
11112;DHT22;5609;49.466;8.468;2023-03-04T14:50:57;9.40;99.90
11112;DHT22;5609;49.466;8.468;2023-03-04T14:53:25;9.30;99.90
11112;DHT22;5609;49.466;8.468;2023-03-04T14:55:57;9.10;99.90
11112;DHT22;5609;49.466;8.468;2023-03-04T14:58:25;9.00;99.90
11112;DHT22;5609;49.466;8.468;2023-03-04T15:01:11;9.00;99.90
11112;DHT22;5609;49.466;8.468;2023-03-04T15:03:39;9.10;99.90
11112;DHT22;5609;49.466;8.468;2023-03-04T15:06:15;9.30;99.90
11112;DHT22;5609;49.466;8.468;2023-03-04T15:08:44;9.70;99.90
11112;DHT22;5609;49.466;8.468;2023-03-04T15:11:21;9.40;99.90
11112;DHT22;5609;49.466;8.468;2023-03-04T15:13:50;9.10;99.90
11112;DHT22;5609;49.466;8.468;2023-03-04T15:16:19;8.70;99.90
11112;DHT22;5609;49.466;8.468;2023-03-04T15:18:55;8.20;99.90
11112;DHT22;5609;49.466;8.468;2023-03-04T15:21:32;8.00;99.90
11112;DHT22;5609;49.466;8.468;2023-03-04T15:23:59;7.70;99.90
11112;DHT22;5609;49.466;8.468;2023-03-04T15:26:30;7.40;99.90
11112;DHT22;5609;49.466;8.468;2023-03-04T15:28:57;7.30;99.90
11112;DHT22;5609;49.466;8.468;2023-03-04T15:31:24;7.10;99.90
11112;DHT22;5609;49.466;8.468;2023-03-04T15:33:51;6.90;99.90
11112;DHT22;5609;49.466;8.468;2023-03-04T15:36:20;6.80;99.90
11112;DHT22;5609;49.466;8.468;2023-03-04T15:38:49;6.70;99.90
11112;DHT22;5609;49.466;8.468;2023-03-04T15:41:19;6.70;99.90
11112;DHT22;5609;49.466;8.468;2023-03-04T15:43:48;6.70;99.90
11112;DHT22;5609;49.466;8.468;2023-03-04T15:46:15;6.70;99.90
11112;DHT22;5609;49.466;8.468;2023-03-04T15:48:42;6.70;99.90
11112;DHT22;5609;49.466;8.468;2023-03-04T15:51:12;6.60;99.90
11112;DHT22;5609;49.466;8.468;2023-03-04T15:53:41;6.60;99.90
11112;DHT22;5609;49.466;8.468;2023-03-04T15:56:12;6.50;99.90
11112;DHT22;5609;49.466;8.468;2023-03-04T15:58:40;6.50;99.90
11112;DHT22;5609;49.466;8.468;2023-03-04T16:01:12;6.50;99.90
11112;DHT22;5609;49.466;8.468;2023-03-04T16:03:40;6.40;99.90
11112;DHT22;5609;49.466;8.468;2023-03-04T16:06:08;6.40;99.90
11112;DHT22;5609;49.466;8.468;2023-03-04T16:08:36;6.40;99.90
11112;DHT22;5609;49.466;8.468;2023-03-04T16:11:03;6.40;99.90
11112;DHT22;5609;49.466;8.468;2023-03-04T16:13:30;6.40;99.90
11112;DHT22;5609;49.466;8.468;2023-03-04T16:15:56;6.30;99.90
11112;DHT22;5609;49.466;8.468;2023-03-04T16:18:25;6.30;99.90
11112;DHT22;5609;49.466;8.468;2023-03-04T16:20:51;6.30;99.90
11112;DHT22;5609;49.466;8.468;2023-03-04T16:23:20;6.30;99.90
11112;DHT22;5609;49.466;8.468;2023-03-04T16:25:50;6.30;99.90
11112;DHT22;5609;49.466;8.468;2023-03-04T16:28:17;6.30;99.90
11112;DHT22;5609;49.466;8.468;2023-03-04T16:30:44;6.30;99.90
11112;DHT22;5609;49.466;8.468;2023-03-04T16:33:11;6.20;99.90
11112;DHT22;5609;49.466;8.468;2023-03-04T16:35:42;6.20;99.90